createdAt,value
2019-03-15T00:00:54.388Z,1000.37
2019-03-15T00:01:54.434Z,1000.36
2019-03-15T00:02:54.340Z,1000.40
2019-03-15T00:03:54.347Z,1000.41
2019-03-15T00:04:54.325Z,1000.40
2019-03-15T00:05:54.328Z,1000.43
2019-03-15T00:06:54.351Z,1000.44
2019-03-15T00:07:54.312Z,1000.48
2019-03-15T00:08:54.278Z,1000.54
2019-03-15T00:09:54.323Z,1000.52
2019-03-15T00:10:54.306Z,1000.51
2019-03-15T00:11:55.280Z,1000.56
2019-03-15T00:12:54.232Z,1000.55
2019-03-15T00:13:54.219Z,1000.53
2019-03-15T00:14:54.247Z,1000.54
2019-03-15T00:15:54.213Z,1000.54
2019-03-15T00:16:54.186Z,1000.54
2019-03-15T00:17:54.182Z,1000.54
2019-03-15T00:18:54.165Z,1000.55
2019-03-15T00:19:54.155Z,1000.53
2019-03-15T00:20:54.153Z,1000.54
2019-03-15T00:21:54.141Z,1000.57
2019-03-15T00:22:54.125Z,1000.60
2019-03-15T00:23:54.112Z,1000.65
2019-03-15T00:24:54.109Z,1000.64
2019-03-15T00:25:55.451Z,1000.64
2019-03-15T00:26:54.096Z,1000.62
2019-03-15T00:27:54.067Z,1000.58
2019-03-15T00:28:54.061Z,1000.58
2019-03-15T00:29:54.043Z,1000.68
2019-03-15T00:30:54.046Z,1000.60
2019-03-15T00:31:54.122Z,1000.59
2019-03-15T00:32:54.012Z,1000.57
2019-03-15T00:33:54.005Z,1000.58
2019-03-15T00:34:53.989Z,1000.60
2019-03-15T00:35:54.000Z,1000.60
2019-03-15T00:36:53.974Z,1000.59
2019-03-15T00:37:53.956Z,1000.55
2019-03-15T00:38:54.122Z,1000.55
2019-03-15T00:39:53.938Z,1000.56
2019-03-15T00:40:53.937Z,1000.54
2019-03-15T00:41:53.925Z,1000.56
2019-03-15T00:42:53.899Z,1000.56
2019-03-15T00:43:53.905Z,1000.55
2019-03-15T00:44:53.881Z,1000.54
2019-03-15T00:45:53.884Z,1000.54
2019-03-15T00:46:53.858Z,1000.62
2019-03-15T00:47:53.867Z,1000.66
2019-03-15T00:48:54.092Z,1000.66
2019-03-15T00:49:53.949Z,1000.62
2019-03-15T00:50:53.820Z,1000.67
2019-03-15T00:51:53.818Z,1000.64
2019-03-15T00:52:53.797Z,1000.66
2019-03-15T00:53:54.525Z,1000.59
2019-03-15T00:54:53.770Z,1000.55
2019-03-15T00:55:53.766Z,1000.61
2019-03-15T00:56:53.749Z,1000.61
2019-03-15T00:57:53.742Z,1000.61
2019-03-15T00:58:53.725Z,1000.57
2019-03-15T00:59:53.719Z,1000.57
2019-03-15T01:00:53.746Z,1000.58
2019-03-15T01:01:53.818Z,1000.54
2019-03-15T01:02:53.698Z,1000.59
2019-03-15T01:03:53.668Z,1000.58
2019-03-15T01:04:53.657Z,1000.59
2019-03-15T01:05:53.668Z,1000.54
2019-03-15T01:06:53.692Z,1000.58
2019-03-15T01:07:53.629Z,1000.56
2019-03-15T01:08:53.615Z,1000.60
2019-03-15T01:09:53.617Z,1000.56
2019-03-15T01:10:53.635Z,1000.58
2019-03-15T01:11:53.609Z,1000.55
2019-03-15T01:12:53.570Z,1000.55
2019-03-15T01:13:53.560Z,1000.58
2019-03-15T01:14:53.551Z,1000.53
2019-03-15T01:15:53.557Z,1000.54
2019-03-15T01:16:53.584Z,1000.56
2019-03-15T01:17:53.543Z,1000.59
2019-03-15T01:18:53.517Z,1000.55
2019-03-15T01:19:53.508Z,1000.59
2019-03-15T01:20:53.485Z,1000.58
2019-03-15T01:21:53.503Z,1000.56
2019-03-15T01:22:53.459Z,1000.53
2019-03-15T01:23:53.452Z,1000.55
2019-03-15T01:24:53.441Z,1000.53
2019-03-15T01:25:53.431Z,1000.54
2019-03-15T01:26:53.427Z,1000.50
2019-03-15T01:27:53.408Z,1000.53
2019-03-15T01:28:53.401Z,1000.50
2019-03-15T01:29:53.384Z,1000.53
2019-03-15T01:30:53.371Z,1000.52
2019-03-15T01:31:53.417Z,1000.53
2019-03-15T01:32:53.362Z,1000.52
2019-03-15T01:33:53.341Z,1000.47
2019-03-15T01:34:53.336Z,1000.46
2019-03-15T01:35:53.323Z,1000.52
2019-03-15T01:36:53.319Z,1000.45
2019-03-15T01:37:53.299Z,1000.45
2019-03-15T01:38:53.285Z,1000.44
2019-03-15T01:39:53.283Z,1000.46
2019-03-15T01:40:53.270Z,1000.48
2019-03-15T01:41:53.264Z,1000.53
2019-03-15T01:42:53.244Z,1000.53
2019-03-15T01:43:53.231Z,1000.48
2019-03-15T01:44:53.399Z,1000.52
2019-03-15T01:45:53.214Z,1000.46
2019-03-15T01:46:53.205Z,1000.44
2019-03-15T01:47:53.192Z,1000.43
2019-03-15T01:48:53.172Z,1000.40
2019-03-15T01:49:53.258Z,1000.42
2019-03-15T01:50:53.152Z,1000.45
2019-03-15T01:51:53.160Z,1000.47
2019-03-15T01:52:53.139Z,1000.45
2019-03-15T01:53:53.155Z,1000.42
2019-03-15T01:54:53.112Z,1000.44
2019-03-15T01:55:53.118Z,1000.44
2019-03-15T01:56:53.111Z,1000.47
2019-03-15T01:57:53.076Z,1000.47
2019-03-15T01:58:53.067Z,1000.42
2019-03-15T01:59:53.061Z,1000.39
2019-03-15T02:00:53.047Z,1000.40
2019-03-15T02:01:57.658Z,1000.35
2019-03-15T02:02:53.044Z,1000.37
2019-03-15T02:03:53.015Z,1000.33
2019-03-15T02:04:53.018Z,1000.36
2019-03-15T02:05:53.024Z,1000.28
2019-03-15T02:06:52.987Z,1000.27
2019-03-15T02:07:52.974Z,1000.26
2019-03-15T02:08:52.957Z,1000.27
2019-03-15T02:09:52.948Z,1000.34
2019-03-15T02:10:52.935Z,1000.33
2019-03-15T02:11:52.929Z,1000.32
2019-03-15T02:12:52.913Z,1000.36
2019-03-15T02:13:52.905Z,1000.35
2019-03-15T02:14:53.492Z,1000.35
2019-03-15T02:15:52.878Z,1000.33
2019-03-15T02:16:52.874Z,1000.36
2019-03-15T02:17:52.857Z,1000.36
2019-03-15T02:18:52.844Z,1000.36
2019-03-15T02:19:52.832Z,1000.37
2019-03-15T02:20:53.300Z,1000.40
2019-03-15T02:21:52.830Z,1000.40
2019-03-15T02:22:52.798Z,1000.44
2019-03-15T02:23:52.887Z,1000.43
2019-03-15T02:24:52.776Z,1000.45
2019-03-15T02:25:53.389Z,1000.44
2019-03-15T02:26:52.768Z,1000.42
2019-03-15T02:27:52.743Z,1000.42
2019-03-15T02:28:52.736Z,1000.42
2019-03-15T02:29:52.757Z,1000.46
2019-03-15T02:30:52.713Z,1000.42
2019-03-15T02:31:52.845Z,1000.39
2019-03-15T02:32:52.701Z,1000.39
2019-03-15T02:33:52.701Z,1000.33
2019-03-15T02:34:53.930Z,1000.32
2019-03-15T02:35:52.653Z,1000.26
2019-03-15T02:36:52.658Z,1000.28
2019-03-15T02:37:52.654Z,1000.26
2019-03-15T02:38:54.063Z,1000.31
2019-03-15T02:39:52.648Z,1000.31
2019-03-15T02:40:52.605Z,1000.29
2019-03-15T02:41:52.592Z,1000.26
2019-03-15T02:42:53.235Z,1000.25
2019-03-15T02:43:52.574Z,1000.21
2019-03-15T02:44:52.556Z,1000.24
2019-03-15T02:45:52.556Z,1000.21
2019-03-15T02:46:52.691Z,1000.22
2019-03-15T02:47:52.533Z,1000.27
2019-03-15T02:48:52.522Z,1000.29
2019-03-15T02:49:52.550Z,1000.30
2019-03-15T02:50:52.496Z,1000.32
2019-03-15T02:51:52.489Z,1000.31
2019-03-15T02:52:52.484Z,1000.29
2019-03-15T02:53:52.464Z,1000.32
2019-03-15T02:54:53.713Z,1000.26
2019-03-15T02:55:52.463Z,1000.31
2019-03-15T02:56:52.423Z,1000.27
2019-03-15T02:57:52.427Z,1000.28
2019-03-15T02:58:53.524Z,1000.29
2019-03-15T02:59:52.400Z,1000.29
2019-03-15T03:00:52.459Z,1000.20
2019-03-15T03:01:52.440Z,1000.26
2019-03-15T03:02:53.966Z,1000.21
2019-03-15T03:03:52.346Z,1000.28
2019-03-15T03:04:52.344Z,1000.24
2019-03-15T03:05:52.329Z,1000.27
2019-03-15T03:06:52.318Z,1000.26
2019-03-15T03:07:52.318Z,1000.31
2019-03-15T03:08:52.296Z,1000.32
2019-03-15T03:09:52.281Z,1000.37
2019-03-15T03:10:52.274Z,1000.30
2019-03-15T03:11:52.283Z,1000.35
2019-03-15T03:12:52.286Z,1000.34
2019-03-15T03:13:52.251Z,1000.38
2019-03-15T03:14:52.271Z,1000.38
2019-03-15T03:15:52.265Z,1000.39
2019-03-15T03:16:52.207Z,1000.38
2019-03-15T03:17:52.210Z,1000.36
2019-03-15T03:18:52.270Z,1000.32
2019-03-15T03:19:52.276Z,1000.36
2019-03-15T03:20:52.176Z,1000.31
2019-03-15T03:21:52.278Z,1000.27
2019-03-15T03:22:52.165Z,1000.33
2019-03-15T03:23:52.127Z,1000.29
2019-03-15T03:24:52.122Z,1000.33
2019-03-15T03:25:52.123Z,1000.30
2019-03-15T03:26:52.113Z,1000.30
2019-03-15T03:27:52.115Z,1000.32
2019-03-15T03:28:52.128Z,1000.29
2019-03-15T03:29:52.073Z,1000.30
2019-03-15T03:30:52.059Z,1000.30
2019-03-15T03:31:52.073Z,1000.27
2019-03-15T03:32:52.109Z,1000.26
2019-03-15T03:33:52.031Z,1000.23
2019-03-15T03:34:52.014Z,1000.20
2019-03-15T03:35:51.994Z,1000.17
2019-03-15T03:36:52.374Z,1000.16
2019-03-15T03:37:51.975Z,1000.14
2019-03-15T03:38:51.977Z,1000.15
2019-03-15T03:39:52.015Z,1000.18
2019-03-15T03:40:51.968Z,1000.13
2019-03-15T03:41:51.935Z,1000.08
2019-03-15T03:42:51.973Z,1000.04
2019-03-15T03:43:51.917Z,1000.03
2019-03-15T03:44:51.932Z,1000.01
2019-03-15T03:45:51.895Z,1000.05
2019-03-15T03:46:52.520Z,999.97
2019-03-15T03:47:51.860Z,999.92
2019-03-15T03:48:51.898Z,999.93
2019-03-15T03:49:51.932Z,999.89
2019-03-15T03:50:51.843Z,999.88
2019-03-15T03:51:51.835Z,999.87
2019-03-15T03:52:51.838Z,999.91
2019-03-15T03:53:51.813Z,999.94
2019-03-15T03:54:51.793Z,999.94
2019-03-15T03:55:51.874Z,1000.02
2019-03-15T03:56:51.765Z,999.97
2019-03-15T03:57:51.760Z,999.91
2019-03-15T03:58:51.754Z,999.99
2019-03-15T03:59:51.785Z,999.96
2019-03-15T04:00:51.732Z,999.94
2019-03-15T04:01:51.709Z,999.97
2019-03-15T04:02:53.258Z,999.97
2019-03-15T04:03:51.711Z,999.95
2019-03-15T04:04:51.691Z,999.88
2019-03-15T04:05:51.670Z,999.82
2019-03-15T04:06:51.655Z,999.84
2019-03-15T04:07:51.643Z,999.89
2019-03-15T04:08:51.639Z,999.84
2019-03-15T04:09:51.633Z,999.78
2019-03-15T04:10:51.609Z,999.73
2019-03-15T04:11:55.724Z,999.73
2019-03-15T04:12:51.654Z,999.70
2019-03-15T04:13:51.613Z,999.70
2019-03-15T04:14:51.663Z,999.69
2019-03-15T04:15:51.554Z,999.67
2019-03-15T04:16:51.550Z,999.68
2019-03-15T04:17:51.530Z,999.68
2019-03-15T04:18:51.536Z,999.70
2019-03-15T04:19:51.558Z,999.69
2019-03-15T04:20:51.504Z,999.70
2019-03-15T04:21:51.504Z,999.70
2019-03-15T04:22:51.506Z,999.68
2019-03-15T04:23:51.540Z,999.67
2019-03-15T04:24:51.525Z,999.66
2019-03-15T04:25:51.442Z,999.72
2019-03-15T04:26:51.439Z,999.73
2019-03-15T04:27:51.422Z,999.73
2019-03-15T04:28:51.434Z,999.66
2019-03-15T04:29:51.400Z,999.65
2019-03-15T04:30:51.400Z,999.68
2019-03-15T04:31:51.386Z,999.70
2019-03-15T04:32:51.365Z,999.74
2019-03-15T04:33:51.375Z,999.77
2019-03-15T04:34:51.345Z,999.76
2019-03-15T04:35:51.338Z,999.79
2019-03-15T04:36:51.436Z,999.74
2019-03-15T04:37:51.312Z,999.71
2019-03-15T04:38:51.324Z,999.67
2019-03-15T04:39:51.287Z,999.73
2019-03-15T04:40:51.279Z,999.78
2019-03-15T04:41:51.272Z,999.74
2019-03-15T04:42:51.264Z,999.78
2019-03-15T04:43:51.287Z,999.79
2019-03-15T04:44:51.234Z,999.80
2019-03-15T04:45:51.285Z,999.78
2019-03-15T04:46:51.248Z,999.77
2019-03-15T04:47:51.209Z,999.76
2019-03-15T04:48:51.228Z,999.75
2019-03-15T04:49:51.186Z,999.74
2019-03-15T04:50:51.173Z,999.81
2019-03-15T04:51:51.156Z,999.78
2019-03-15T04:52:51.157Z,999.74
2019-03-15T04:53:51.135Z,999.79
2019-03-15T04:54:51.162Z,999.75
2019-03-15T04:55:51.147Z,999.70
2019-03-15T04:56:51.106Z,999.71
2019-03-15T04:57:51.090Z,999.69
2019-03-15T04:58:51.100Z,999.69
2019-03-15T04:59:51.089Z,999.72
2019-03-15T05:00:51.064Z,999.72
2019-03-15T05:01:51.179Z,999.71
2019-03-15T05:02:51.034Z,999.69
2019-03-15T05:03:51.028Z,999.66
2019-03-15T05:04:51.031Z,999.70
2019-03-15T05:06:02.675Z,999.67
2019-03-15T05:06:51.998Z,999.67
2019-03-15T05:07:50.989Z,999.64
2019-03-15T05:08:50.972Z,999.58
2019-03-15T05:09:51.015Z,999.60
2019-03-15T05:10:50.988Z,999.52
2019-03-15T05:11:50.940Z,999.55
2019-03-15T05:12:50.926Z,999.58
2019-03-15T05:13:50.973Z,999.55
2019-03-15T05:14:50.918Z,999.50
2019-03-15T05:15:50.913Z,999.52
2019-03-15T05:16:50.882Z,999.52
2019-03-15T05:17:50.896Z,999.50
2019-03-15T05:18:50.864Z,999.49
2019-03-15T05:19:50.884Z,999.54
2019-03-15T05:20:50.840Z,999.46
2019-03-15T05:21:50.910Z,999.44
2019-03-15T05:22:50.831Z,999.48
2019-03-15T05:23:50.805Z,999.44
2019-03-15T05:24:50.809Z,999.45
2019-03-15T05:25:50.784Z,999.42
2019-03-15T05:26:50.801Z,999.41
2019-03-15T05:27:50.786Z,999.42
2019-03-15T05:28:50.757Z,999.40
2019-03-15T05:29:50.782Z,999.42
2019-03-15T05:30:50.732Z,999.41
2019-03-15T05:31:50.717Z,999.44
2019-03-15T05:32:50.709Z,999.45
2019-03-15T05:33:50.694Z,999.44
2019-03-15T05:34:50.717Z,999.45
2019-03-15T05:35:50.707Z,999.40
2019-03-15T05:36:50.669Z,999.42
2019-03-15T05:37:50.734Z,999.37
2019-03-15T05:38:50.650Z,999.35
2019-03-15T05:39:50.636Z,999.28
2019-03-15T05:40:50.623Z,999.35
2019-03-15T05:41:50.618Z,999.32
2019-03-15T05:42:50.594Z,999.30
2019-03-15T05:43:53.056Z,999.30
2019-03-15T05:44:50.573Z,999.25
2019-03-15T05:45:50.603Z,999.22
2019-03-15T05:46:50.558Z,999.24
2019-03-15T05:47:50.538Z,999.23
2019-03-15T05:48:50.539Z,999.20
2019-03-15T05:49:50.537Z,999.19
2019-03-15T05:50:50.527Z,999.18
2019-03-15T05:51:50.523Z,999.14
2019-03-15T05:52:50.484Z,999.12
2019-03-15T05:53:50.479Z,999.10
2019-03-15T05:54:50.465Z,999.09
2019-03-15T05:55:50.464Z,999.08
2019-03-15T05:56:50.462Z,999.09
2019-03-15T05:57:50.485Z,999.11
2019-03-15T05:58:50.424Z,999.09
2019-03-15T05:59:50.445Z,999.13
2019-03-15T06:00:50.409Z,999.08
2019-03-15T06:01:50.439Z,999.13
2019-03-15T06:02:50.397Z,999.11
2019-03-15T06:03:50.431Z,999.09
2019-03-15T06:04:50.355Z,999.12
2019-03-15T06:05:50.344Z,999.14
2019-03-15T06:06:50.379Z,999.17
2019-03-15T06:07:50.366Z,999.15
2019-03-15T06:08:50.310Z,999.15
2019-03-15T06:09:50.304Z,999.18
2019-03-15T06:10:50.312Z,999.15
2019-03-15T06:11:50.373Z,999.13
2019-03-15T06:12:50.278Z,999.12
2019-03-15T06:13:50.254Z,999.06
2019-03-15T06:14:50.241Z,999.04
2019-03-15T06:15:50.232Z,999.02
2019-03-15T06:16:50.256Z,999.00
2019-03-15T06:17:50.278Z,998.98
2019-03-15T06:18:50.199Z,999.01
2019-03-15T06:19:50.234Z,998.97
2019-03-15T06:20:50.175Z,998.97
2019-03-15T06:21:50.177Z,998.94
2019-03-15T06:22:50.167Z,998.92
2019-03-15T06:23:50.303Z,998.87
2019-03-15T06:24:50.147Z,998.79
2019-03-15T06:25:50.121Z,998.77
2019-03-15T06:26:50.114Z,998.74
2019-03-15T06:27:50.118Z,998.76
2019-03-15T06:28:50.120Z,998.68
2019-03-15T06:29:50.140Z,998.68
2019-03-15T06:30:50.066Z,998.71
2019-03-15T06:31:50.075Z,998.66
2019-03-15T06:32:50.054Z,998.72
2019-03-15T06:33:50.032Z,998.74
2019-03-15T06:34:50.021Z,998.72
2019-03-15T06:35:50.012Z,998.73
2019-03-15T06:36:50.058Z,998.70
2019-03-15T06:37:50.027Z,998.69
2019-03-15T06:38:50.066Z,998.64
2019-03-15T06:39:49.975Z,998.67
2019-03-15T06:40:49.973Z,998.63
2019-03-15T06:41:49.982Z,998.67
2019-03-15T06:42:49.945Z,998.65
2019-03-15T06:43:49.940Z,998.69
2019-03-15T06:44:57.850Z,998.67
2019-03-15T06:45:50.949Z,998.64
2019-03-15T06:46:49.932Z,998.61
2019-03-15T06:47:49.896Z,998.60
2019-03-15T06:48:49.888Z,998.57
2019-03-15T06:49:49.888Z,998.57
2019-03-15T06:50:49.846Z,998.55
2019-03-15T06:51:49.871Z,998.54
2019-03-15T06:52:49.824Z,998.55
2019-03-15T06:53:49.830Z,998.52
2019-03-15T06:54:49.806Z,998.47
2019-03-15T06:55:49.797Z,998.44
2019-03-15T06:56:49.783Z,998.41
2019-03-15T06:57:49.776Z,998.40
2019-03-15T06:58:49.773Z,998.39
2019-03-15T06:59:49.749Z,998.42
2019-03-15T07:00:49.736Z,998.43
2019-03-15T07:01:50.705Z,998.43
2019-03-15T07:02:49.734Z,998.39
2019-03-15T07:03:49.714Z,998.39
2019-03-15T07:04:49.691Z,998.39
2019-03-15T07:05:49.694Z,998.39
2019-03-15T07:06:49.672Z,998.36
2019-03-15T07:07:49.664Z,998.40
2019-03-15T07:08:49.650Z,998.32
2019-03-15T07:09:49.773Z,998.31
2019-03-15T07:10:49.672Z,998.28
2019-03-15T07:11:49.635Z,998.28
2019-03-15T07:12:49.646Z,998.26
2019-03-15T07:13:49.634Z,998.30
2019-03-15T07:14:49.682Z,998.30
2019-03-15T07:15:49.582Z,998.26
2019-03-15T07:16:49.566Z,998.28
2019-03-15T07:17:49.552Z,998.26
2019-03-15T07:18:49.551Z,998.29
2019-03-15T07:19:49.527Z,998.26
2019-03-15T07:20:49.557Z,998.16
2019-03-15T07:21:49.770Z,998.14
2019-03-15T07:22:49.529Z,998.13
2019-03-15T07:23:49.492Z,998.13
2019-03-15T07:24:49.470Z,998.11
2019-03-15T07:25:49.465Z,998.13
2019-03-15T07:26:49.453Z,998.14
2019-03-15T07:27:49.473Z,998.12
2019-03-15T07:28:49.462Z,998.04
2019-03-15T07:29:49.418Z,998.00
2019-03-15T07:30:49.405Z,998.06
2019-03-15T07:31:49.468Z,998.07
2019-03-15T07:32:49.385Z,998.06
2019-03-15T07:33:49.715Z,998.06
2019-03-15T07:34:49.395Z,998.04
2019-03-15T07:35:49.366Z,997.98
2019-03-15T07:36:49.347Z,997.96
2019-03-15T07:37:49.345Z,997.90
2019-03-15T07:38:49.324Z,997.91
2019-03-15T07:39:49.350Z,997.92
2019-03-15T07:40:49.313Z,997.93
2019-03-15T07:41:49.282Z,997.90
2019-03-15T07:42:49.280Z,997.93
2019-03-15T07:43:49.272Z,997.91
2019-03-15T07:44:49.270Z,997.88
2019-03-15T07:45:49.275Z,997.85
2019-03-15T07:46:51.009Z,997.81
2019-03-15T07:47:49.220Z,997.82
2019-03-15T07:48:49.228Z,997.77
2019-03-15T07:49:49.202Z,997.75
2019-03-15T07:50:49.198Z,997.77
2019-03-15T07:51:49.178Z,997.78
2019-03-15T07:52:49.176Z,997.76
2019-03-15T07:53:49.166Z,997.71
2019-03-15T07:54:49.149Z,997.77
2019-03-15T07:55:49.133Z,997.70
2019-03-15T07:56:49.151Z,997.68
2019-03-15T07:57:49.110Z,997.68
2019-03-15T07:58:49.140Z,997.70
2019-03-15T07:59:49.097Z,997.68
2019-03-15T08:00:49.106Z,997.66
2019-03-15T08:01:49.086Z,997.62
2019-03-15T08:02:49.081Z,997.59
2019-03-15T08:03:49.047Z,997.59
2019-03-15T08:04:49.036Z,997.58
2019-03-15T08:05:49.020Z,997.56
2019-03-15T08:06:49.050Z,997.59
2019-03-15T08:07:48.998Z,997.60
2019-03-15T08:08:48.998Z,997.65
2019-03-15T08:09:50.765Z,997.64
2019-03-15T08:10:48.977Z,997.63
2019-03-15T08:11:48.967Z,997.60
2019-03-15T08:12:49.807Z,997.56
2019-03-15T08:13:48.945Z,997.56
2019-03-15T08:14:48.934Z,997.58
2019-03-15T08:15:48.928Z,997.55
2019-03-15T08:16:48.902Z,997.54
2019-03-15T08:17:48.886Z,997.58
2019-03-15T08:18:48.936Z,997.58
2019-03-15T08:19:48.917Z,997.56
2019-03-15T08:20:48.889Z,997.55
2019-03-15T08:21:48.881Z,997.57
2019-03-15T08:22:48.831Z,997.50
2019-03-15T08:23:48.857Z,997.50
2019-03-15T08:24:51.800Z,997.46
2019-03-15T08:25:50.454Z,997.48
2019-03-15T08:26:48.787Z,997.47
2019-03-15T08:27:48.811Z,997.44
2019-03-15T08:28:48.773Z,997.43
2019-03-15T08:29:48.763Z,997.49
2019-03-15T08:30:48.750Z,997.47
2019-03-15T08:31:48.736Z,997.49
2019-03-15T08:32:48.721Z,997.48
2019-03-15T08:33:48.715Z,997.46
2019-03-15T08:34:48.718Z,997.48
2019-03-15T08:35:48.702Z,997.46
2019-03-15T08:36:48.768Z,997.48
2019-03-15T08:37:48.677Z,997.46
2019-03-15T08:38:48.675Z,997.42
2019-03-15T08:39:48.712Z,997.43
2019-03-15T08:40:48.665Z,997.45
2019-03-15T08:41:48.623Z,997.47
2019-03-15T08:42:48.631Z,997.50
2019-03-15T08:43:48.966Z,997.51
2019-03-15T08:44:48.604Z,997.48
2019-03-15T08:45:48.610Z,997.48
2019-03-15T08:46:48.566Z,997.48
2019-03-15T08:47:48.559Z,997.51
2019-03-15T08:48:48.629Z,997.50
2019-03-15T08:49:48.534Z,997.50
2019-03-15T08:50:48.521Z,997.49
2019-03-15T08:51:48.517Z,997.48
2019-03-15T08:52:48.554Z,997.44
2019-03-15T08:53:48.528Z,997.45
2019-03-15T08:54:48.485Z,997.42
2019-03-15T08:55:48.469Z,997.41
2019-03-15T08:56:48.485Z,997.45
2019-03-15T08:57:48.450Z,997.44
2019-03-15T08:58:48.441Z,997.40
2019-03-15T08:59:56.953Z,997.30
2019-03-15T09:00:49.424Z,997.40
2019-03-15T09:01:48.452Z,997.39
2019-03-15T09:02:48.493Z,997.41
2019-03-15T09:03:48.421Z,997.41
2019-03-15T09:04:50.497Z,997.36
2019-03-15T09:05:48.571Z,997.45
2019-03-15T09:06:48.348Z,997.40
2019-03-15T09:07:48.374Z,997.47
2019-03-15T09:08:48.337Z,997.45
2019-03-15T09:09:48.326Z,997.48
2019-03-15T09:10:48.307Z,997.44
2019-03-15T09:11:48.387Z,997.49
2019-03-15T09:12:48.281Z,997.50
2019-03-15T09:13:49.298Z,997.49
2019-03-15T09:14:48.274Z,997.49
2019-03-15T09:15:48.272Z,997.53
2019-03-15T09:16:48.237Z,997.53
2019-03-15T09:17:48.223Z,997.53
2019-03-15T09:18:48.255Z,997.66
2019-03-15T09:19:48.225Z,997.59
2019-03-15T09:20:48.201Z,997.62
2019-03-15T09:21:48.181Z,997.61
2019-03-15T09:22:48.221Z,997.67
2019-03-15T09:23:48.187Z,997.52
2019-03-15T09:24:48.200Z,997.56
2019-03-15T09:25:48.167Z,997.50
2019-03-15T09:26:48.134Z,997.50
2019-03-15T09:27:48.153Z,997.55
2019-03-15T09:28:48.135Z,997.47
2019-03-15T09:29:48.186Z,997.46
2019-03-15T09:30:48.085Z,997.50
2019-03-15T09:31:48.555Z,997.45
2019-03-15T09:32:48.116Z,997.55
2019-03-15T09:33:48.050Z,997.57
2019-03-15T09:34:48.056Z,997.52
2019-03-15T09:35:48.106Z,997.47
2019-03-15T09:36:50.487Z,997.51
2019-03-15T09:37:48.051Z,997.55
2019-03-15T09:38:48.006Z,997.56
2019-03-15T09:39:48.003Z,997.56
2019-03-15T09:40:47.983Z,997.60
2019-03-15T09:41:47.985Z,997.59
2019-03-15T09:42:47.954Z,997.52
2019-03-15T09:43:47.946Z,997.53
2019-03-15T09:44:47.935Z,997.62
2019-03-15T09:45:47.930Z,997.59
2019-03-15T09:46:47.914Z,997.55
2019-03-15T09:47:47.934Z,997.47
2019-03-15T09:48:47.884Z,997.50
2019-03-15T09:49:47.877Z,997.49
2019-03-15T09:50:51.467Z,997.54
2019-03-15T09:51:47.982Z,997.51
2019-03-15T09:52:47.888Z,997.50
2019-03-15T09:53:47.836Z,997.52
2019-03-15T09:54:47.821Z,997.51
2019-03-15T09:55:47.827Z,997.46
2019-03-15T09:56:47.845Z,997.47
2019-03-15T09:57:47.795Z,997.55
2019-03-15T09:58:47.777Z,997.44
2019-03-15T09:59:47.784Z,997.56
2019-03-15T10:00:47.766Z,997.49
2019-03-15T10:01:47.839Z,997.50
2019-03-15T10:02:47.749Z,997.47
2019-03-15T10:03:47.757Z,997.53
2019-03-15T10:04:47.715Z,997.58
2019-03-15T10:05:47.728Z,997.57
2019-03-15T10:06:47.745Z,997.54
2019-03-15T10:07:47.721Z,997.56
2019-03-15T10:08:47.676Z,997.54
2019-03-15T10:09:47.682Z,997.55
2019-03-15T10:10:49.184Z,997.59
2019-03-15T10:11:47.736Z,997.52
2019-03-15T10:12:47.623Z,997.56
2019-03-15T10:13:47.606Z,997.52
2019-03-15T10:14:47.657Z,997.56
2019-03-15T10:15:47.770Z,997.55
2019-03-15T10:16:47.600Z,997.54
2019-03-15T10:17:47.644Z,997.59
2019-03-15T10:18:50.363Z,997.50
2019-03-15T10:19:47.543Z,997.55
2019-03-15T10:20:47.553Z,997.54
2019-03-15T10:21:47.545Z,997.60
2019-03-15T10:23:04.280Z,997.55
2019-03-15T10:23:48.499Z,997.57
2019-03-15T10:24:47.506Z,997.54
2019-03-15T10:25:50.986Z,997.54
2019-03-15T10:26:47.493Z,997.52
2019-03-15T10:27:47.458Z,997.53
2019-03-15T10:28:47.480Z,997.66
2019-03-15T10:29:47.478Z,997.60
2019-03-15T10:30:47.433Z,997.61
2019-03-15T10:31:47.458Z,997.64
2019-03-15T10:32:47.401Z,997.64
2019-03-15T10:33:50.843Z,997.69
2019-03-15T10:34:47.397Z,997.71
2019-03-15T10:35:47.392Z,997.70
2019-03-15T10:36:47.390Z,997.77
2019-03-15T10:37:47.393Z,997.74
2019-03-15T10:38:47.404Z,997.74
2019-03-15T10:39:47.325Z,997.77
2019-03-15T10:40:47.331Z,997.73
2019-03-15T10:41:47.356Z,997.79
2019-03-15T10:42:47.307Z,997.74
2019-03-15T10:43:47.285Z,997.78
2019-03-15T10:44:47.305Z,997.78
2019-03-15T10:45:47.269Z,997.82
2019-03-15T10:46:47.289Z,997.80
2019-03-15T10:47:47.240Z,997.86
2019-03-15T10:48:47.251Z,997.85
2019-03-15T10:49:47.250Z,997.90
2019-03-15T10:50:47.243Z,997.91
2019-03-15T10:51:47.286Z,997.89
2019-03-15T10:52:47.183Z,997.85
2019-03-15T10:53:47.248Z,997.89
2019-03-15T10:54:47.218Z,997.86
2019-03-15T10:55:59.580Z,997.93
2019-03-15T10:56:48.149Z,997.91
2019-03-15T10:57:47.127Z,997.93
2019-03-15T10:58:47.132Z,997.91
2019-03-15T10:59:47.106Z,997.99
2019-03-15T11:00:47.109Z,997.93
2019-03-15T11:01:47.091Z,997.94
2019-03-15T11:02:47.086Z,997.97
2019-03-15T11:03:47.085Z,997.93
2019-03-15T11:04:47.056Z,997.97
2019-03-15T11:05:47.041Z,997.97
2019-03-15T11:06:47.057Z,997.94
2019-03-15T11:07:47.028Z,997.98
2019-03-15T11:08:47.039Z,998.07
2019-03-15T11:09:47.037Z,998.06
2019-03-15T11:10:47.041Z,998.05
2019-03-15T11:11:46.983Z,998.11
2019-03-15T11:12:46.963Z,998.14
2019-03-15T11:13:46.952Z,998.11
2019-03-15T11:14:46.948Z,998.04
2019-03-15T11:15:46.935Z,998.11
2019-03-15T11:16:46.944Z,998.14
2019-03-15T11:17:46.995Z,998.16
2019-03-15T11:18:46.907Z,998.21
2019-03-15T11:19:46.995Z,998.23
2019-03-15T11:20:46.884Z,998.27
2019-03-15T11:21:46.875Z,998.22
2019-03-15T11:22:46.951Z,998.20
2019-03-15T11:23:46.845Z,998.14
2019-03-15T11:24:46.829Z,998.25
2019-03-15T11:25:46.927Z,998.20
2019-03-15T11:26:46.988Z,998.21
2019-03-15T11:27:46.807Z,998.23
2019-03-15T11:28:46.793Z,998.25
2019-03-15T11:29:46.782Z,998.32
2019-03-15T11:30:46.776Z,998.34
2019-03-15T11:31:46.858Z,998.31
2019-03-15T11:32:46.754Z,998.39
2019-03-15T11:33:47.503Z,998.34
2019-03-15T11:34:46.718Z,998.29
2019-03-15T11:35:46.770Z,998.24
2019-03-15T11:36:57.815Z,998.21
2019-03-15T11:37:48.166Z,998.25
2019-03-15T11:38:46.742Z,998.28
2019-03-15T11:39:46.713Z,998.34
2019-03-15T11:40:46.746Z,998.40
2019-03-15T11:41:46.730Z,998.37
2019-03-15T11:42:46.717Z,998.41
2019-03-15T11:43:46.626Z,998.49
2019-03-15T11:44:46.612Z,998.40
2019-03-15T11:45:46.628Z,998.48
2019-03-15T11:46:46.616Z,998.38
2019-03-15T11:48:02.510Z,998.33
2019-03-15T11:48:47.631Z,998.39
2019-03-15T11:49:46.576Z,998.36
2019-03-15T11:50:46.553Z,998.32
2019-03-15T11:51:46.544Z,998.36
2019-03-15T11:52:46.532Z,998.39
2019-03-15T11:53:46.509Z,998.38
2019-03-15T11:54:49.602Z,998.39
2019-03-15T11:55:46.495Z,998.40
2019-03-15T11:56:46.514Z,998.39
2019-03-15T11:57:46.479Z,998.31
2019-03-15T11:58:46.461Z,998.35
2019-03-15T11:59:46.462Z,998.24
2019-03-15T12:00:46.432Z,998.40
2019-03-15T12:01:46.556Z,998.41
2019-03-15T12:02:46.419Z,998.36
2019-03-15T12:03:52.972Z,998.43
2019-03-15T12:04:47.405Z,998.47
2019-03-15T12:05:46.400Z,998.48
2019-03-15T12:06:46.371Z,998.54
2019-03-15T12:07:46.464Z,998.51
2019-03-15T12:08:46.346Z,998.46
2019-03-15T12:09:46.470Z,998.52
2019-03-15T12:10:46.372Z,998.50
2019-03-15T12:11:46.312Z,998.52
2019-03-15T12:12:46.332Z,998.49
2019-03-15T12:13:46.296Z,998.46
2019-03-15T12:14:46.287Z,998.48
2019-03-15T12:15:46.277Z,998.51
2019-03-15T12:16:46.260Z,998.45
2019-03-15T12:17:46.258Z,998.49
2019-03-15T12:18:46.256Z,998.47
2019-03-15T12:19:46.228Z,998.49
2019-03-15T12:20:49.089Z,998.48
2019-03-15T12:21:46.211Z,998.49